ITH weather

Ithaca Tompkins Regional Airport
Ithaca, New York, United States

Public forecast

Using degrees Fahrenheit for public forecast. Weather courtesy of forecast.io.

Current aviation weather report (METAR) for Ithaca Tompkins Regional Airport

Retrieved 2019/12/11 12:56 UTC (43 minutes ago):

KITH 111256Z 18004KT 9SM BKN036 OVC050 M06/M07 A3021 RMK AO2 SNE54 SLP246 P0000 T10561072

Aviation forecast (TAF) for Ithaca Tompkins Regional Airport

Retrieved 2019/12/11 12:30 UTC (1 hour ago):

TAF KITH 111129Z 1112/1212 VRB03KT P6SM SCT035 BKN060 FM111500 23011KT P6SM SCT060 FM112000 28015G23KT P6SM BKN040 FM120500 29007KT P6SM SCT040